Veere, Netherlands

11:16 AM CEST on July 28, 2017 (GMT +0200)
Gapinge | | Change Station

Elev 7 ft 51.54 °N, 3.62 °E | Updated 9 seconds ago

Mostly Cloudy
Mostly Cloudy
63.2 °F
Feels Like 63.2 °F
N
9.2
Wind Variable Wind from SW
Gusts 9.2 mph

Today
High -- | Low -- °F
--% Chance of Precip.
Yesterday
High -- | Low -- °F
Precip. -- in
Pressure 29.86 in
Visibility 6.2 miles
Clouds Few 2200 ft
Mostly Cloudy 2600 ft
Overcast 3000 ft
Dew Point 57 °F
Humidity 81%
Rainfall 0.05 in
Snow Depth Not available.
6:03 AM 9:39 PM
Waxing Crescent, 28% visible
SPECI EHWO 280911Z AUTO 23014KT 190V260 9999 FEW022 BKN026 OVC030 18/13 Q1011 BLU 22013G23KT 9999 SCT023 BKN070 TEMPO SCT020CB SCT023 BKN050
Pressure 29.86 in
Visibility 6.2 miles
Clouds Few 2200 ft
Mostly Cloudy 2600 ft
Overcast 3000 ft
Dew Point 57 °F
Humidity 81%
Rainfall 0.05 in
Snow Depth Not available.
6:03 AM 9:39 PM
Waxing Crescent, 28% visible
SPECI EHWO 280911Z AUTO 23014KT 190V260 9999 FEW022 BKN026 OVC030 18/13 Q1011 BLU 22013G23KT 9999 SCT023 BKN070 TEMPO SCT020CB SCT023 BKN050

Get Severe Weather Alerts

Thanks for signing up!

Be on the lookout for a verification email in your inbox.

You'll start receiving the daily forecast at 6 AM.

×

10-Day Weather Forecast

×

Almanac

Astronomy

Jul. 28, 2017 Rise Set
Actual Time
Civil Twilight
Nautical Twilight
Astronomical Twilight
Moon
Length of Visible Light
Length of Day
Tomorrow will be .
, % of the Moon is Illuminated

Today's Extremes

Country Highs Country Lows

Community

WunderPhotos

Category 6

Welcome to Category 6. This is the collective home for Weather Underground's featured writeups by Dr. Jeff Masters (right), Bob Henson (left), Chris Burt, and other regular contributors.

Nearby

Air Quality

  Air Quality AQ Index Pollutant
Not available.

Snow Depth

Station Depth Elevation

Earthquake Activity

City Distance Mag. Time & Date
Minimum magnitude displayed is 2.5.

Coastal Water Temperatures

Place Temperature

Stations

Nearby Weather Stations

Station Location Temp. Windchill Dew Point Humidity Wind Precip. Elev Updated Type